createdAt,value
2023-02-05T00:02:37.693Z,80
2023-02-05T00:06:02.846Z,81
2023-02-05T00:09:28.043Z,81
2023-02-05T00:12:53.249Z,81
2023-02-05T00:16:18.443Z,80
2023-02-05T00:19:43.576Z,79
2023-02-05T00:23:08.747Z,78
2023-02-05T00:26:33.927Z,79
2023-02-05T00:29:59.134Z,78
2023-02-05T00:33:24.328Z,80
2023-02-05T00:36:49.488Z,79
2023-02-05T00:40:14.661Z,79
2023-02-05T00:43:39.843Z,79
2023-02-05T00:47:05.041Z,78
2023-02-05T00:50:30.182Z,77
2023-02-05T00:53:55.426Z,80
2023-02-05T00:57:20.592Z,79
2023-02-05T01:00:45.777Z,78
2023-02-05T01:04:10.969Z,78
2023-02-05T01:07:36.117Z,80
2023-02-05T01:11:01.328Z,81
2023-02-05T01:14:26.491Z,81
2023-02-05T01:17:51.678Z,81
2023-02-05T01:21:16.874Z,82
2023-02-05T01:24:42.046Z,81
2023-02-05T01:28:07.278Z,80
2023-02-05T01:31:32.635Z,79
2023-02-05T01:34:57.612Z,80
2023-02-05T01:38:22.827Z,79
2023-02-05T01:41:47.995Z,81
2023-02-05T01:45:13.150Z,80
2023-02-05T01:48:38.354Z,82
2023-02-05T01:52:03.490Z,81
2023-02-05T01:55:28.710Z,80
2023-02-05T01:58:53.834Z,78
2023-02-05T02:02:19.032Z,78
2023-02-05T02:05:44.222Z,80
2023-02-05T02:09:09.390Z,80
2023-02-05T02:12:34.578Z,80
2023-02-05T02:15:59.794Z,80
2023-02-05T02:19:24.907Z,79
2023-02-05T02:22:50.093Z,78
2023-02-05T02:26:15.244Z,77
2023-02-05T02:29:40.453Z,79
2023-02-05T02:33:05.597Z,79
2023-02-05T02:36:30.769Z,79
2023-02-05T02:39:55.940Z,80
2023-02-05T02:43:21.104Z,81
2023-02-05T02:46:46.303Z,80
2023-02-05T02:50:11.442Z,80
2023-02-05T02:53:36.621Z,80
2023-02-05T02:57:01.787Z,81
2023-02-05T03:00:27.014Z,80
2023-02-05T03:03:52.240Z,81
2023-02-05T03:07:17.313Z,81
2023-02-05T03:10:42.481Z,81
2023-02-05T03:14:07.653Z,81
2023-02-05T03:17:32.824Z,81
2023-02-05T03:20:58.036Z,82
2023-02-05T03:24:23.185Z,82
2023-02-05T03:27:48.373Z,81
2023-02-05T03:31:13.520Z,80
2023-02-05T03:34:38.702Z,80
2023-02-05T03:38:03.916Z,81
2023-02-05T03:41:29.050Z,81
2023-02-05T03:44:54.223Z,80
2023-02-05T03:48:19.368Z,80
2023-02-05T03:51:44.552Z,81
2023-02-05T03:55:09.739Z,81
2023-02-05T03:58:34.868Z,81
2023-02-05T04:02:00.051Z,80
2023-02-05T04:05:25.195Z,81
2023-02-05T04:08:50.348Z,81
2023-02-05T04:12:15.599Z,82
2023-02-05T04:15:40.716Z,83
2023-02-05T04:19:05.868Z,82
2023-02-05T04:22:31.036Z,82
2023-02-05T04:25:56.194Z,82
2023-02-05T04:29:21.395Z,81
2023-02-05T04:32:46.517Z,81
2023-02-05T04:36:11.681Z,82
2023-02-05T04:39:36.859Z,83
2023-02-05T04:43:02.018Z,83
2023-02-05T04:46:27.224Z,81
2023-02-05T04:49:52.335Z,81
2023-02-05T04:53:17.505Z,81
2023-02-05T04:56:42.664Z,81
2023-02-05T05:00:07.835Z,81
2023-02-05T05:03:33.014Z,81
2023-02-05T05:06:58.191Z,81
2023-02-05T05:10:23.347Z,81
2023-02-05T05:13:48.510Z,81
2023-02-05T05:17:13.689Z,81
2023-02-05T05:20:38.892Z,81
2023-02-05T05:24:04.032Z,81
2023-02-05T05:27:29.220Z,81
2023-02-05T05:30:54.425Z,80
2023-02-05T05:34:19.541Z,81
2023-02-05T05:37:44.740Z,80
2023-02-05T05:41:09.875Z,81
2023-02-05T05:44:35.039Z,80
2023-02-05T05:48:00.201Z,81
2023-02-05T05:51:25.393Z,81
2023-02-05T05:54:50.586Z,81
2023-02-05T05:58:15.715Z,81
2023-02-05T06:01:40.873Z,81
2023-02-05T06:05:06.033Z,80
2023-02-05T06:08:31.186Z,81
2023-02-05T06:11:56.375Z,80
2023-02-05T06:15:21.509Z,80
2023-02-05T06:18:46.675Z,80
2023-02-05T06:22:11.830Z,81
2023-02-05T06:25:36.997Z,82
2023-02-05T06:29:02.177Z,83
2023-02-05T06:32:27.326Z,84
2023-02-05T06:35:52.499Z,85
2023-02-05T06:39:17.671Z,85
2023-02-05T06:42:42.831Z,85
2023-02-05T06:46:08.022Z,84
2023-02-05T06:49:33.147Z,84
2023-02-05T06:52:58.321Z,83
2023-02-05T06:56:23.525Z,83
2023-02-05T06:59:48.690Z,83
2023-02-05T07:03:13.863Z,82
2023-02-05T07:06:38.992Z,83
2023-02-05T07:10:04.154Z,82
2023-02-05T07:13:29.341Z,82
2023-02-05T07:16:54.543Z,82
2023-02-05T07:20:20.097Z,82
2023-02-05T07:23:45.249Z,82
2023-02-05T07:27:10.417Z,82
2023-02-05T07:30:35.600Z,82
2023-02-05T07:34:00.774Z,81
2023-02-05T07:37:25.984Z,82
2023-02-05T07:40:51.184Z,81
2023-02-05T07:44:16.341Z,81
2023-02-05T07:47:41.535Z,80
2023-02-05T07:51:06.704Z,80
2023-02-05T07:54:31.894Z,80
2023-02-05T07:57:57.054Z,80
2023-02-05T08:01:22.298Z,81
2023-02-05T08:04:47.410Z,81
2023-02-05T08:08:12.590Z,81
2023-02-05T08:11:37.783Z,80
2023-02-05T08:15:02.926Z,80
2023-02-05T08:18:28.076Z,80
2023-02-05T08:21:53.269Z,80
2023-02-05T08:25:18.458Z,80
2023-02-05T08:28:43.656Z,79
2023-02-05T08:32:08.795Z,79
2023-02-05T08:35:34.211Z,79
2023-02-05T08:38:59.172Z,78
2023-02-05T08:42:24.357Z,78
2023-02-05T08:45:49.651Z,78
2023-02-05T08:49:14.721Z,78
2023-02-05T08:52:39.919Z,78
2023-02-05T08:56:05.111Z,78
2023-02-05T08:59:30.307Z,78
2023-02-05T09:02:55.534Z,77
2023-02-05T09:06:20.685Z,77
2023-02-05T09:09:45.840Z,77
2023-02-05T09:13:11.028Z,76
2023-02-05T09:16:36.294Z,77
2023-02-05T09:20:01.406Z,76
2023-02-05T09:23:26.567Z,75
2023-02-05T09:26:51.764Z,75
2023-02-05T09:30:16.935Z,75
2023-02-05T09:33:42.105Z,75
2023-02-05T09:37:07.348Z,74
2023-02-05T09:40:32.507Z,74
2023-02-05T09:43:57.700Z,74
2023-02-05T09:47:22.891Z,74
2023-02-05T09:50:48.088Z,74
2023-02-05T09:54:13.281Z,73
2023-02-05T09:57:38.458Z,73
2023-02-05T10:01:03.732Z,73
2023-02-05T10:04:28.848Z,74
2023-02-05T10:07:54.005Z,74
2023-02-05T10:11:19.244Z,73
2023-02-05T10:14:44.422Z,74
2023-02-05T10:18:09.611Z,74
2023-02-05T10:21:34.769Z,73
2023-02-05T10:24:59.945Z,74
2023-02-05T10:28:25.244Z,73
2023-02-05T10:31:50.474Z,73
2023-02-05T10:35:15.601Z,73
2023-02-05T10:38:40.832Z,73
2023-02-05T10:42:05.992Z,72
2023-02-05T10:45:31.168Z,73
2023-02-05T10:48:56.347Z,73
2023-02-05T10:52:21.520Z,73
2023-02-05T10:55:46.704Z,74
2023-02-05T10:59:11.900Z,74
2023-02-05T11:02:37.107Z,73
2023-02-05T11:06:02.227Z,73
2023-02-05T11:09:27.400Z,72
2023-02-05T11:12:52.604Z,73
2023-02-05T11:16:17.844Z,73
2023-02-05T11:19:42.989Z,73
2023-02-05T11:23:08.125Z,73
2023-02-05T11:26:33.286Z,73
2023-02-05T11:29:58.454Z,73
2023-02-05T11:33:23.649Z,73
2023-02-05T11:36:48.875Z,72
2023-02-05T11:40:13.997Z,72
2023-02-05T11:43:39.212Z,72
2023-02-05T11:47:04.385Z,72
2023-02-05T11:50:29.556Z,73
2023-02-05T11:53:54.879Z,72
2023-02-05T11:57:20.122Z,72
2023-02-05T12:00:45.801Z,72
2023-02-05T12:04:11.084Z,72
2023-02-05T12:07:36.291Z,73
2023-02-05T12:11:01.612Z,72
2023-02-05T12:14:26.802Z,72
2023-02-05T12:17:52.052Z,73
2023-02-05T12:21:17.304Z,73
2023-02-05T12:24:42.517Z,74
2023-02-05T12:28:07.894Z,73
2023-02-05T12:31:33.079Z,73
2023-02-05T12:34:58.310Z,73
2023-02-05T12:38:31.949Z,74
2023-02-05T12:41:48.810Z,73
2023-02-05T12:45:14.079Z,74
2023-02-05T12:48:39.306Z,74
2023-02-05T12:52:04.577Z,74
2023-02-05T12:55:29.813Z,73
2023-02-05T12:58:55.063Z,73
2023-02-05T13:02:20.312Z,73
2023-02-05T13:05:45.545Z,73
2023-02-05T13:09:10.819Z,74
2023-02-05T13:12:36.040Z,75
2023-02-05T13:16:01.294Z,75
2023-02-05T13:19:26.626Z,75
2023-02-05T13:22:51.888Z,76
2023-02-05T13:26:17.129Z,75
2023-02-05T13:29:42.452Z,75
2023-02-05T13:33:07.674Z,75
2023-02-05T13:36:33.028Z,75
2023-02-05T13:39:58.359Z,76
2023-02-05T13:43:23.806Z,75
2023-02-05T13:46:49.059Z,76
2023-02-05T13:50:14.314Z,76
2023-02-05T13:53:39.598Z,74
2023-02-05T13:57:04.850Z,74
2023-02-05T14:00:30.140Z,74
2023-02-05T14:03:56.215Z,75
2023-02-05T14:07:21.454Z,74
2023-02-05T14:10:48.212Z,74
2023-02-05T14:14:11.990Z,74
2023-02-05T14:17:37.247Z,73
2023-02-05T14:21:02.529Z,74
2023-02-05T14:24:27.884Z,73
2023-02-05T14:27:53.196Z,74
2023-02-05T14:31:18.552Z,74
2023-02-05T15:04:48.859Z,74
2023-02-05T15:08:14.083Z,73
2023-02-05T15:11:39.363Z,72
2023-02-05T15:15:04.655Z,73
2023-02-05T15:18:29.956Z,74
2023-02-05T15:21:55.263Z,74
2023-02-05T15:25:20.585Z,74
2023-02-05T15:28:45.858Z,74
2023-02-05T15:32:11.143Z,74
2023-02-05T15:35:36.682Z,76
2023-02-05T15:39:01.809Z,75
2023-02-05T15:42:27.008Z,76
2023-02-05T15:45:52.307Z,76
2023-02-05T15:49:17.649Z,76
2023-02-05T15:52:42.811Z,76
2023-02-05T15:56:08.002Z,76
2023-02-05T15:59:33.130Z,77
2023-02-05T16:02:58.461Z,77
2023-02-05T16:06:23.647Z,77
2023-02-05T16:09:48.904Z,77
2023-02-05T16:13:17.069Z,78
2023-02-05T16:17:20.203Z,78
2023-02-05T16:20:54.054Z,78
2023-02-05T16:24:28.811Z,79
2023-02-05T16:28:00.468Z,79
2023-02-05T16:31:36.528Z,79
2023-02-05T16:35:03.280Z,78
2023-02-05T16:38:29.440Z,78
2023-02-05T16:41:55.904Z,78
2023-02-05T16:45:26.846Z,77
2023-02-05T16:48:52.026Z,78
2023-02-05T16:52:17.268Z,79
2023-02-05T16:55:42.486Z,78
2023-02-05T16:59:09.182Z,78
2023-02-05T17:02:34.576Z,79
2023-02-05T17:05:59.861Z,77
2023-02-05T17:09:25.107Z,78
2023-02-05T17:12:50.361Z,79
2023-02-05T17:16:15.699Z,79
2023-02-05T17:19:40.930Z,79
2023-02-05T17:23:06.211Z,78
2023-02-05T17:26:31.413Z,75
2023-02-05T17:29:56.665Z,78
2023-02-05T17:33:21.945Z,80
2023-02-05T17:36:47.212Z,79
2023-02-05T17:40:12.595Z,78
2023-02-05T17:43:37.736Z,80
2023-02-05T17:47:03.048Z,80
2023-02-05T17:50:28.358Z,78
2023-02-05T17:53:53.651Z,77
2023-02-05T17:57:18.993Z,79
2023-02-05T18:00:44.201Z,81
2023-02-05T18:04:09.434Z,80
2023-02-05T18:07:34.650Z,81
2023-02-05T18:10:59.908Z,80
2023-02-05T18:14:25.188Z,79
2023-02-05T18:17:50.433Z,80
2023-02-05T18:21:15.668Z,81
2023-02-05T18:24:40.886Z,81
2023-02-05T18:28:06.187Z,82
2023-02-05T18:31:31.491Z,82
2023-02-05T18:34:56.656Z,82
2023-02-05T18:38:21.853Z,82
2023-02-05T18:41:47.100Z,82
2023-02-05T18:45:12.338Z,81
2023-02-05T18:48:37.590Z,81
2023-02-05T18:52:02.806Z,81
2023-02-05T18:55:28.113Z,81
2023-02-05T18:58:53.344Z,81
2023-02-05T19:02:18.626Z,81
2023-02-05T19:05:43.861Z,81
2023-02-05T19:09:09.056Z,81
2023-02-05T19:12:34.327Z,82
2023-02-05T19:15:59.606Z,81
2023-02-05T19:19:24.879Z,80
2023-02-05T19:22:50.129Z,80
2023-02-05T19:26:15.339Z,81
2023-02-05T19:29:40.581Z,81
2023-02-05T19:33:05.902Z,82
2023-02-05T19:36:31.197Z,83
2023-02-05T19:39:56.453Z,83
2023-02-05T19:43:21.658Z,82
2023-02-05T19:46:46.916Z,81
2023-02-05T19:50:12.180Z,80
2023-02-05T19:53:37.412Z,79
2023-02-05T19:57:02.770Z,76
2023-02-05T20:00:27.977Z,76
2023-02-05T20:03:53.267Z,77
2023-02-05T20:07:18.585Z,78
2023-02-05T20:10:43.857Z,78
2023-02-05T20:14:09.110Z,79
2023-02-05T20:17:34.353Z,79
2023-02-05T20:20:59.652Z,81
2023-02-05T20:24:24.932Z,79
2023-02-05T20:27:50.255Z,79
2023-02-05T20:31:15.662Z,78
2023-02-05T20:34:40.710Z,79
2023-02-05T20:38:05.973Z,78
2023-02-05T20:41:31.232Z,80
2023-02-05T20:44:56.463Z,80
2023-02-05T20:48:21.654Z,81
2023-02-05T20:51:46.788Z,81
2023-02-05T20:55:11.949Z,82
2023-02-05T20:58:37.105Z,82
2023-02-05T21:02:02.299Z,82
2023-02-05T21:05:27.455Z,81
2023-02-05T21:08:52.611Z,83
2023-02-05T21:12:17.780Z,86
2023-02-05T21:15:42.942Z,86
2023-02-05T21:19:08.122Z,85
2023-02-05T21:22:33.315Z,85
2023-02-05T21:25:58.457Z,84
2023-02-05T21:29:23.636Z,83
2023-02-05T21:32:48.836Z,83
2023-02-05T21:36:14.040Z,84
2023-02-05T21:39:39.247Z,83
2023-02-05T21:43:04.408Z,83
2023-02-05T21:46:29.620Z,83
2023-02-05T21:49:54.752Z,83
2023-02-05T21:53:19.950Z,84
2023-02-05T21:56:45.132Z,84
2023-02-05T22:00:10.258Z,84
2023-02-05T22:03:35.438Z,84
2023-02-05T22:07:00.592Z,84
2023-02-05T22:10:25.739Z,84
2023-02-05T22:13:50.946Z,84
2023-02-05T22:17:16.066Z,84
2023-02-05T22:20:41.239Z,84
2023-02-05T22:24:06.422Z,84
2023-02-05T22:27:31.566Z,86
2023-02-05T22:30:56.834Z,86
2023-02-05T22:34:21.923Z,86
2023-02-05T22:37:47.089Z,87
2023-02-05T22:41:12.244Z,87
2023-02-05T22:44:37.410Z,87
2023-02-05T22:48:02.624Z,87
2023-02-05T22:51:27.742Z,86
2023-02-05T22:54:52.931Z,87
2023-02-05T22:58:18.105Z,87
2023-02-05T23:01:43.258Z,87
2023-02-05T23:05:08.453Z,86
2023-02-05T23:08:33.613Z,86
2023-02-05T23:11:58.768Z,86
2023-02-05T23:15:23.941Z,86
2023-02-05T23:18:49.128Z,85
2023-02-05T23:22:14.351Z,86
2023-02-05T23:25:39.513Z,86
2023-02-05T23:29:04.679Z,86
2023-02-05T23:32:29.864Z,86
2023-02-05T23:35:55.058Z,86
2023-02-05T23:39:20.249Z,86
2023-02-05T23:42:45.399Z,86
2023-02-05T23:46:10.609Z,86
2023-02-05T23:49:35.738Z,87
2023-02-05T23:53:00.964Z,87
2023-02-05T23:56:26.142Z,87
2023-02-05T23:59:51.303Z,87
